createdAt,value
2023-04-28T00:02:26.672Z,55.73
2023-04-28T00:05:12.091Z,55.69
2023-04-28T00:07:57.292Z,56.22
2023-04-28T00:10:42.786Z,56.31
2023-04-28T00:13:28.211Z,55.76
2023-04-28T00:16:13.455Z,56.02
2023-04-28T00:18:58.838Z,56.31
2023-04-28T00:21:43.558Z,56.22
2023-04-28T00:24:28.429Z,56.24
2023-04-28T00:27:13.764Z,56.08
2023-04-28T00:29:58.649Z,56.88
2023-04-28T00:32:43.996Z,56.90
2023-04-28T00:35:29.380Z,57.05
2023-04-28T00:38:14.892Z,57.11
2023-04-28T00:41:00.145Z,56.68
2023-04-28T00:43:46.408Z,56.75
2023-04-28T00:46:33.556Z,57.17
2023-04-28T00:49:18.811Z,57.58
2023-04-28T00:52:07.360Z,57.53
2023-04-28T00:54:52.707Z,57.74
2023-04-28T00:57:38.327Z,57.62
2023-04-28T01:00:23.393Z,57.80
2023-04-28T01:03:09.740Z,58.04
2023-04-28T01:05:55.706Z,57.82
2023-04-28T01:08:40.729Z,58.01
2023-04-28T01:11:25.647Z,57.63
2023-04-28T01:14:10.502Z,58.13
2023-04-28T01:16:56.512Z,58.46
2023-04-28T01:19:42.034Z,58.53
2023-04-28T01:22:27.169Z,58.88
2023-04-28T01:25:11.941Z,58.83
2023-04-28T01:27:56.740Z,58.79
2023-04-28T01:30:42.237Z,58.80
2023-04-28T01:33:27.677Z,58.57
2023-04-28T01:36:12.962Z,59.12
2023-04-28T01:38:58.158Z,59.24
2023-04-28T01:41:43.129Z,59.08
2023-04-28T01:44:28.625Z,59.62
2023-04-28T01:47:13.890Z,59.62
2023-04-28T01:49:58.755Z,59.61
2023-04-28T01:52:44.263Z,59.52
2023-04-28T01:55:47.872Z,59.73
2023-04-28T01:58:32.788Z,60.23
2023-04-28T02:01:18.192Z,60.34
2023-04-28T02:04:03.606Z,60.18
2023-04-28T02:06:48.824Z,59.98
2023-04-28T02:09:34.224Z,60.05
2023-04-28T02:12:19.606Z,60.18
2023-04-28T02:15:05.374Z,60.22
2023-04-28T02:17:50.734Z,61.03
2023-04-28T02:20:36.166Z,61.29
2023-04-28T02:23:20.947Z,61.31
2023-04-28T02:26:06.155Z,60.95
2023-04-28T02:28:51.428Z,61.32
2023-04-28T02:31:36.544Z,61.24
2023-04-28T02:34:21.920Z,61.36
2023-04-28T02:37:06.867Z,61.93
2023-04-28T02:39:52.177Z,62.10
2023-04-28T02:42:37.056Z,61.92
2023-04-28T02:45:22.006Z,62.11
2023-04-28T02:48:06.912Z,61.55
2023-04-28T02:50:52.545Z,62.33
2023-04-28T02:53:37.615Z,62.38
2023-04-28T02:56:22.664Z,62.23
2023-04-28T02:59:07.680Z,62.21
2023-04-28T03:01:52.616Z,62.46
2023-04-28T03:04:38.327Z,62.36
2023-04-28T03:07:23.620Z,62.86
2023-04-28T03:10:09.061Z,62.87
2023-04-28T03:12:53.897Z,63.27
2023-04-28T03:15:39.231Z,63.24
2023-04-28T03:18:24.280Z,63.05
2023-04-28T03:21:09.241Z,63.31
2023-04-28T03:23:54.255Z,63.02
2023-04-28T03:26:39.093Z,62.91
2023-04-28T03:29:24.109Z,62.83
2023-04-28T03:32:09.618Z,62.70
2023-04-28T03:34:54.835Z,62.91
2023-04-28T03:37:40.069Z,63.38
2023-04-28T03:40:25.188Z,63.61
2023-04-28T03:43:10.617Z,63.62
2023-04-28T03:45:55.788Z,63.28
2023-04-28T03:48:40.829Z,63.46
2023-04-28T03:51:25.718Z,63.37
2023-04-28T03:54:10.785Z,63.83
2023-04-28T03:56:56.007Z,63.66
2023-04-28T03:59:41.291Z,63.69
2023-04-28T04:02:26.279Z,63.78
2023-04-28T04:05:11.473Z,63.77
2023-04-28T04:07:56.858Z,63.64
2023-04-28T04:10:41.644Z,63.73
2023-04-28T04:13:26.689Z,64.46
2023-04-28T04:16:12.232Z,64.28
2023-04-28T04:18:57.502Z,64.42
2023-04-28T04:21:42.441Z,64.30
2023-04-28T04:24:27.326Z,64.61
2023-04-28T04:27:12.620Z,65.24
2023-04-28T04:29:57.950Z,65.41
2023-04-28T04:32:42.950Z,65.89
2023-04-28T04:35:28.484Z,65.75
2023-04-28T04:38:13.650Z,66.42
2023-04-28T04:40:58.495Z,66.51
2023-04-28T04:43:43.356Z,66.59
2023-04-28T04:46:28.401Z,67.06
2023-04-28T04:49:13.701Z,67.38
2023-04-28T04:51:58.529Z,67.69
2023-04-28T04:54:43.931Z,67.86
2023-04-28T04:57:28.784Z,68.20
2023-04-28T05:00:14.149Z,68.59
2023-04-28T05:02:59.177Z,68.92
2023-04-28T05:05:46.202Z,69.07
2023-04-28T05:08:31.503Z,69.12
2023-04-28T05:11:16.597Z,69.38
2023-04-28T05:14:01.781Z,69.25
2023-04-28T05:16:47.092Z,69.43
2023-04-28T05:19:32.095Z,69.62
2023-04-28T05:22:17.510Z,70.14
2023-04-28T05:25:03.011Z,70.23
2023-04-28T05:27:48.343Z,70.36
2023-04-28T05:30:33.937Z,70.35
2023-04-28T05:33:19.131Z,70.80
2023-04-28T05:36:04.738Z,70.82
2023-04-28T05:38:49.863Z,71.10
2023-04-28T05:41:35.626Z,71.72
2023-04-28T05:44:20.795Z,71.90
2023-04-28T05:47:06.542Z,71.93
2023-04-28T05:49:51.550Z,72.18
2023-04-28T05:52:36.481Z,72.89
2023-04-28T05:55:22.073Z,72.77
2023-04-28T05:58:07.319Z,73.54
2023-04-28T06:00:52.476Z,74.82
2023-04-28T06:03:38.025Z,76.06
2023-04-28T06:06:23.510Z,76.65
2023-04-28T06:09:08.726Z,77.13
2023-04-28T06:11:54.090Z,79.24
2023-04-28T06:14:39.394Z,79.52
2023-04-28T06:17:24.892Z,80.88
2023-04-28T06:20:10.320Z,81.43
2023-04-28T06:22:55.240Z,82.04
2023-04-28T06:25:40.292Z,82.21
2023-04-28T06:28:25.837Z,83.10
2023-04-28T06:31:10.996Z,83.78
2023-04-28T06:33:56.239Z,83.51
2023-04-28T06:36:41.483Z,83.75
2023-04-28T06:39:28.078Z,83.81
2023-04-28T06:42:13.012Z,84.32
2023-04-28T06:44:57.917Z,84.62
2023-04-28T06:47:43.352Z,84.39
2023-04-28T06:50:29.104Z,84.25
2023-04-28T06:53:14.386Z,84.14
2023-04-28T06:55:59.322Z,85.35
2023-04-28T06:58:44.513Z,84.73
2023-04-28T07:01:29.739Z,84.72
2023-04-28T07:04:15.304Z,85.11
2023-04-28T07:07:00.461Z,85.11
2023-04-28T07:09:45.922Z,85.41
2023-04-28T07:12:31.248Z,85.14
2023-04-28T07:15:16.111Z,85.63
2023-04-28T07:18:01.109Z,85.27
2023-04-28T07:20:46.595Z,85.12
2023-04-28T07:23:31.762Z,85.33
2023-04-28T07:26:16.970Z,86.61
2023-04-28T07:29:02.503Z,87.17
2023-04-28T07:31:47.856Z,87.43
2023-04-28T07:34:33.162Z,88.06
2023-04-28T07:37:18.433Z,87.97
2023-04-28T07:40:04.397Z,88.46
2023-04-28T07:42:49.572Z,88.44
2023-04-28T07:45:39.186Z,88.39
2023-04-28T07:48:24.608Z,89.05
2023-04-28T07:51:09.749Z,89.21
2023-04-28T07:53:54.733Z,88.95
2023-04-28T07:56:39.684Z,89.26
2023-04-28T07:59:24.932Z,89.47
2023-04-28T08:02:09.897Z,89.37
2023-04-28T08:04:55.299Z,89.50
2023-04-28T08:07:40.480Z,89.57
2023-04-28T08:10:25.841Z,89.15
2023-04-28T08:13:11.851Z,88.40
2023-04-28T08:15:56.832Z,88.09
2023-04-28T08:18:42.265Z,86.56
2023-04-28T08:21:27.621Z,85.50
2023-04-28T08:24:12.572Z,84.01
2023-04-28T08:26:57.612Z,82.21
2023-04-28T08:29:43.203Z,81.70
2023-04-28T08:32:28.408Z,82.31
2023-04-28T08:35:13.950Z,83.49
2023-04-28T08:37:59.305Z,84.93
2023-04-28T08:40:44.585Z,85.84
2023-04-28T08:43:29.668Z,87.07
2023-04-28T08:46:18.248Z,87.21
2023-04-28T08:49:06.319Z,86.92
2023-04-28T08:52:00.193Z,87.56
2023-04-28T08:54:49.238Z,87.68
2023-04-28T08:57:55.837Z,87.02
2023-04-28T09:00:41.009Z,86.82
2023-04-28T09:03:26.753Z,87.20
2023-04-28T09:06:12.052Z,87.29
2023-04-28T09:09:17.946Z,87.26
2023-04-28T09:12:03.763Z,88.24
2023-04-28T09:14:58.235Z,89.34
2023-04-28T09:17:50.499Z,91.89
2023-04-28T09:20:36.756Z,95.58
2023-04-28T09:23:24.349Z,98.67
2023-04-28T09:26:09.704Z,100.00
2023-04-28T09:29:11.938Z,100.00
2023-04-28T09:32:14.757Z,100.00
2023-04-28T09:35:00.256Z,100.00
2023-04-28T09:37:45.698Z,100.00
2023-04-28T09:40:30.835Z,100.00
2023-04-28T09:43:35.375Z,100.00
2023-04-28T09:46:29.173Z,100.00
2023-04-28T09:49:14.760Z,100.00
2023-04-28T09:52:13.523Z,100.00
2023-04-28T09:55:02.836Z,100.00
2023-04-28T09:57:50.261Z,100.00
2023-04-28T10:00:36.678Z,100.00
2023-04-28T10:03:29.409Z,100.00
2023-04-28T10:06:15.468Z,100.00
2023-04-28T10:09:01.638Z,100.00
2023-04-28T10:11:47.337Z,100.00
2023-04-28T10:14:33.195Z,100.00
2023-04-28T10:17:18.486Z,100.00
2023-04-28T10:20:04.912Z,100.00
2023-04-28T10:22:55.756Z,100.00
2023-04-28T10:25:42.621Z,100.00
2023-04-28T10:28:27.738Z,100.00
2023-04-28T10:31:14.163Z,99.18
2023-04-28T10:34:22.208Z,98.35
2023-04-28T10:37:07.247Z,97.87
2023-04-28T10:40:30.675Z,97.82
2023-04-28T10:43:27.816Z,97.82
2023-04-28T10:46:13.153Z,98.33
2023-04-28T10:48:58.585Z,97.93
2023-04-28T10:51:43.937Z,96.61
2023-04-28T10:54:29.333Z,94.80
2023-04-28T10:57:15.502Z,94.54
2023-04-28T11:00:29.617Z,93.12
2023-04-28T11:03:42.906Z,92.36
2023-04-28T11:06:54.377Z,90.28
2023-04-28T11:09:39.165Z,89.21
2023-04-28T11:12:24.765Z,91.02
2023-04-28T11:15:13.208Z,89.96
2023-04-28T11:17:59.376Z,89.47
2023-04-28T11:20:55.186Z,88.82
2023-04-28T11:23:40.520Z,87.95
2023-04-28T11:26:27.763Z,86.75
2023-04-28T11:29:13.004Z,86.91
2023-04-28T11:31:58.120Z,86.37
2023-04-28T11:34:51.844Z,85.90
2023-04-28T11:37:36.728Z,86.89
2023-04-28T11:40:22.136Z,86.79
2023-04-28T11:43:07.548Z,87.20
2023-04-28T11:45:52.504Z,86.79
2023-04-28T11:48:38.271Z,86.32
2023-04-28T11:51:29.383Z,86.94
2023-04-28T11:54:21.123Z,86.72
2023-04-28T11:57:06.424Z,85.14
2023-04-28T11:59:51.736Z,85.81
2023-04-28T12:02:37.365Z,85.12
2023-04-28T12:05:22.685Z,83.24
2023-04-28T12:08:08.079Z,83.66
2023-04-28T12:11:13.324Z,84.39
2023-04-28T12:14:06.875Z,83.41
2023-04-28T12:16:52.440Z,83.83
2023-04-28T12:19:44.379Z,83.68
2023-04-28T12:22:30.233Z,84.02
2023-04-28T12:25:17.192Z,82.95
2023-04-28T12:28:08.394Z,82.22
2023-04-28T12:31:04.638Z,82.29
2023-04-28T12:33:49.677Z,83.14
2023-04-28T12:36:34.558Z,82.23
2023-04-28T12:39:19.917Z,81.81
2023-04-28T12:42:04.763Z,82.28
2023-04-28T12:44:50.221Z,82.00
2023-04-28T12:47:36.652Z,81.48
2023-04-28T12:50:21.720Z,81.87
2023-04-28T12:53:07.212Z,82.14
2023-04-28T12:55:53.711Z,81.41
2023-04-28T12:58:39.235Z,81.21
2023-04-28T13:01:24.488Z,81.61
2023-04-28T13:04:10.274Z,82.95
2023-04-28T13:06:55.563Z,83.75
2023-04-28T13:09:41.419Z,84.92
2023-04-28T13:12:26.903Z,85.79
2023-04-28T13:15:12.307Z,85.15
2023-04-28T13:17:57.617Z,85.05
2023-04-28T13:21:03.555Z,85.06
2023-04-28T13:23:48.843Z,85.52
2023-04-28T13:26:33.797Z,85.72
2023-04-28T13:29:19.112Z,86.15
2023-04-28T13:32:04.749Z,86.66
2023-04-28T13:34:50.862Z,86.77
2023-04-28T13:37:36.431Z,86.85
2023-04-28T13:40:21.854Z,87.34
2023-04-28T13:43:07.083Z,87.41
2023-04-28T13:45:53.357Z,87.96
2023-04-28T13:48:40.098Z,87.93
2023-04-28T13:51:25.079Z,88.12
2023-04-28T13:54:11.106Z,89.05
2023-04-28T13:56:57.134Z,90.78
2023-04-28T13:59:42.604Z,92.85
2023-04-28T14:02:27.981Z,94.59
2023-04-28T14:05:13.470Z,95.42
2023-04-28T14:07:58.930Z,97.08
2023-04-28T14:10:44.486Z,99.13
2023-04-28T14:13:29.724Z,100.00
2023-04-28T14:16:14.619Z,100.00
2023-04-28T14:19:00.000Z,100.00
2023-04-28T14:21:45.466Z,100.00
2023-04-28T14:24:30.605Z,100.00
2023-04-28T14:27:15.472Z,100.00
2023-04-28T14:30:00.803Z,100.00
2023-04-28T14:32:45.813Z,100.00
2023-04-28T14:35:31.068Z,100.00
2023-04-28T14:38:16.460Z,100.00
2023-04-28T14:41:01.768Z,100.00
2023-04-28T14:43:47.135Z,100.00
2023-04-28T14:46:32.525Z,100.00
2023-04-28T14:49:17.931Z,100.00
2023-04-28T14:52:02.782Z,100.00
2023-04-28T14:54:51.179Z,100.00
2023-04-28T14:57:36.121Z,100.00
2023-04-28T15:00:21.058Z,100.00
2023-04-28T15:03:06.688Z,100.00
2023-04-28T15:05:52.499Z,100.00
2023-04-28T15:08:37.871Z,100.00
2023-04-28T15:11:22.949Z,100.00
2023-04-28T15:14:08.209Z,100.00
2023-04-28T15:16:53.142Z,100.00
2023-04-28T15:19:38.834Z,100.00
2023-04-28T15:22:24.225Z,100.00
2023-04-28T15:25:09.729Z,100.00
2023-04-28T15:27:55.179Z,100.00
2023-04-28T15:30:40.566Z,100.00
2023-04-28T15:33:25.836Z,100.00
2023-04-28T15:36:12.341Z,100.00
2023-04-28T15:38:57.347Z,100.00
2023-04-28T15:41:42.855Z,100.00
2023-04-28T15:44:30.423Z,100.00
2023-04-28T15:47:15.683Z,100.00
2023-04-28T15:50:01.003Z,100.00
2023-04-28T15:52:46.152Z,100.00
2023-04-28T15:55:31.458Z,100.00
2023-04-28T15:58:16.906Z,100.00
2023-04-28T16:01:01.784Z,100.00
2023-04-28T16:03:48.309Z,100.00
2023-04-28T16:06:33.526Z,100.00
2023-04-28T16:09:19.068Z,100.00
2023-04-28T16:12:04.480Z,100.00
2023-04-28T16:14:49.939Z,100.00
2023-04-28T16:17:36.302Z,100.00
2023-04-28T16:20:21.495Z,100.00
2023-04-28T16:23:07.193Z,100.00
2023-04-28T16:25:52.518Z,100.00
2023-04-28T16:28:37.421Z,100.00
2023-04-28T16:31:22.887Z,100.00
2023-04-28T16:34:08.010Z,100.00
2023-04-28T16:36:52.937Z,100.00
2023-04-28T16:39:37.791Z,100.00
2023-04-28T16:42:23.240Z,100.00
2023-04-28T16:45:09.103Z,100.00
2023-04-28T16:47:54.230Z,100.00
2023-04-28T16:50:40.862Z,100.00
2023-04-28T16:53:26.032Z,100.00
2023-04-28T16:56:11.514Z,100.00
2023-04-28T16:58:56.935Z,100.00
2023-04-28T17:01:41.950Z,100.00
2023-04-28T17:04:27.998Z,100.00
2023-04-28T17:07:13.188Z,100.00
2023-04-28T17:09:58.635Z,100.00
2023-04-28T17:12:44.149Z,99.78
2023-04-28T17:15:29.014Z,99.68
2023-04-28T17:18:14.339Z,99.95
2023-04-28T17:20:59.211Z,99.88
2023-04-28T17:23:44.237Z,100.00
2023-04-28T17:26:30.359Z,100.00
2023-04-28T17:29:15.641Z,99.97
2023-04-28T17:32:01.020Z,99.58
2023-04-28T17:34:46.352Z,99.87
2023-04-28T17:37:32.946Z,99.80
2023-04-28T17:40:18.242Z,99.46
2023-04-28T17:43:03.330Z,99.59
2023-04-28T17:45:48.847Z,99.09
2023-04-28T17:48:34.134Z,97.98
2023-04-28T17:51:20.513Z,98.07
2023-04-28T17:54:05.875Z,98.55
2023-04-28T17:56:51.339Z,98.95
2023-04-28T17:59:36.711Z,99.30
2023-04-28T18:02:22.022Z,99.94
2023-04-28T18:05:08.136Z,100.00
2023-04-28T18:07:53.225Z,100.00
2023-04-28T18:10:38.451Z,100.00
2023-04-28T18:13:23.924Z,100.00
2023-04-28T18:16:09.241Z,100.00
2023-04-28T18:18:54.555Z,100.00
2023-04-28T18:21:39.847Z,100.00
2023-04-28T18:24:25.426Z,100.00
2023-04-28T18:27:11.039Z,100.00
2023-04-28T18:29:56.241Z,100.00
2023-04-28T18:32:41.811Z,100.00
2023-04-28T18:35:26.881Z,100.00
2023-04-28T18:38:11.877Z,100.00
2023-04-28T18:40:58.066Z,100.00
2023-04-28T18:43:43.499Z,100.00
2023-04-28T18:46:28.979Z,100.00
2023-04-28T18:49:14.180Z,100.00
2023-04-28T18:51:59.489Z,100.00
2023-04-28T18:54:44.470Z,100.00
2023-04-28T18:57:29.767Z,100.00
2023-04-28T19:00:15.771Z,100.00
2023-04-28T19:03:00.942Z,100.00
2023-04-28T19:05:46.559Z,100.00
2023-04-28T19:08:31.502Z,100.00
2023-04-28T19:11:17.047Z,100.00
2023-04-28T19:14:02.326Z,100.00
2023-04-28T19:16:47.664Z,100.00
2023-04-28T19:19:33.176Z,100.00
2023-04-28T19:22:37.196Z,100.00
2023-04-28T19:25:22.350Z,100.00
2023-04-28T19:28:07.235Z,100.00
2023-04-28T19:30:53.420Z,100.00
2023-04-28T19:33:38.580Z,100.00
2023-04-28T19:36:23.333Z,100.00
2023-04-28T19:39:08.114Z,100.00
2023-04-28T19:41:52.939Z,100.00
2023-04-28T19:44:38.424Z,100.00
2023-04-28T19:47:27.610Z,100.00
2023-04-28T19:50:12.794Z,100.00
2023-04-28T19:52:57.974Z,100.00
2023-04-28T19:55:42.797Z,100.00
2023-04-28T19:58:27.635Z,100.00
2023-04-28T20:01:12.726Z,100.00
2023-04-28T20:03:58.101Z,100.00
2023-04-28T20:06:43.506Z,100.00
2023-04-28T20:09:28.397Z,100.00
2023-04-28T20:12:14.139Z,100.00
2023-04-28T20:14:59.505Z,100.00
2023-04-28T20:17:44.651Z,100.00
2023-04-28T20:20:30.062Z,100.00
2023-04-28T20:23:15.369Z,100.00
2023-04-28T20:26:02.169Z,100.00
2023-04-28T20:28:47.436Z,100.00
2023-04-28T20:31:33.029Z,100.00
2023-04-28T20:34:18.284Z,100.00
2023-04-28T20:37:03.767Z,100.00
2023-04-28T20:39:48.784Z,100.00
2023-04-28T20:42:33.985Z,100.00
2023-04-28T20:45:18.827Z,100.00
2023-04-28T20:48:04.149Z,100.00
2023-04-28T20:50:49.317Z,100.00
2023-04-28T20:53:34.534Z,100.00
2023-04-28T20:56:19.752Z,100.00
2023-04-28T20:59:04.508Z,100.00
2023-04-28T21:01:49.388Z,100.00
2023-04-28T21:04:34.899Z,100.00
2023-04-28T21:07:19.614Z,100.00
2023-04-28T21:10:04.883Z,100.00
2023-04-28T21:12:49.881Z,100.00
2023-04-28T21:15:41.982Z,100.00
2023-04-28T21:18:27.380Z,100.00
2023-04-28T21:21:13.327Z,100.00
2023-04-28T21:23:58.585Z,100.00
2023-04-28T21:26:43.506Z,100.00
2023-04-28T21:29:28.479Z,100.00
2023-04-28T21:32:13.928Z,100.00
2023-04-28T21:34:59.477Z,100.00
2023-04-28T21:37:45.126Z,100.00
2023-04-28T21:40:30.514Z,100.00
2023-04-28T21:43:16.538Z,100.00
2023-04-28T21:46:01.945Z,100.00
2023-04-28T21:48:47.389Z,100.00
2023-04-28T21:51:32.525Z,100.00
2023-04-28T21:54:17.457Z,100.00
2023-04-28T21:57:02.871Z,100.00
2023-04-28T21:59:48.579Z,100.00
2023-04-28T22:02:34.405Z,100.00
2023-04-28T22:05:20.212Z,100.00
2023-04-28T22:08:05.394Z,100.00
2023-04-28T22:10:50.891Z,100.00
2023-04-28T22:13:36.058Z,100.00
2023-04-28T22:16:21.812Z,100.00
2023-04-28T22:19:07.191Z,100.00
2023-04-28T22:21:52.627Z,100.00
2023-04-28T22:24:38.077Z,100.00
2023-04-28T22:27:23.601Z,100.00
2023-04-28T22:30:09.593Z,100.00
2023-04-28T22:32:54.938Z,100.00
2023-04-28T22:35:40.354Z,100.00
2023-04-28T22:38:25.718Z,100.00
2023-04-28T22:41:10.871Z,100.00
2023-04-28T22:43:56.301Z,100.00
2023-04-28T22:46:41.708Z,100.00
2023-04-28T22:49:27.234Z,100.00
2023-04-28T22:52:12.495Z,100.00
2023-04-28T22:54:58.442Z,100.00
2023-04-28T22:57:43.418Z,100.00
2023-04-28T23:00:29.001Z,100.00
2023-04-28T23:03:13.986Z,100.00
2023-04-28T23:05:59.627Z,100.00
2023-04-28T23:08:44.646Z,100.00
2023-04-28T23:11:29.990Z,100.00
2023-04-28T23:14:15.418Z,100.00
2023-04-28T23:17:00.267Z,100.00
2023-04-28T23:19:45.705Z,100.00
2023-04-28T23:22:30.643Z,100.00
2023-04-28T23:25:15.936Z,100.00
2023-04-28T23:28:01.380Z,100.00
2023-04-28T23:30:46.755Z,100.00
2023-04-28T23:33:32.098Z,100.00
2023-04-28T23:36:17.536Z,100.00
2023-04-28T23:39:03.008Z,100.00
2023-04-28T23:41:48.131Z,100.00
2023-04-28T23:44:33.627Z,100.00
2023-04-28T23:47:19.112Z,100.00
2023-04-28T23:50:04.771Z,100.00
2023-04-28T23:52:50.084Z,100.00
2023-04-28T23:55:35.585Z,100.00
2023-04-28T23:58:20.933Z,100.00
